Time;durP1;ratioP1;P1;durP2;ratioP2;P2;SDS_P1;SDS_P2;PMS_P1;PMS_P2;Temp;Humidity;BMP_temperature;BMP_pressure;BME280_temperature;BME280_humidity;BME280_pressure;Samples;Min_cycle;Max_cycle;Signal;HPM_P1;HPM_P2
2022/03/16 00:02:23;;;;;;;10.95;2.60;;;;;;;20.66;36.52;101416.97;5053376;28;20494;-76
2022/03/16 00:04:53;;;;;;;8.82;2.50;;;;;;;20.53;36.94;101421.06;5055691;28;20387;-78
2022/03/16 00:07:20;;;;;;;9.52;2.95;;;;;;;20.52;36.91;101423.03;5055791;28;20057;-75
2022/03/16 00:09:47;;;;;;;9.30;3.47;;;;;;;20.51;36.83;101424.19;5055645;28;20416;-76
2022/03/16 00:12:13;;;;;;;8.70;2.90;;;;;;;20.55;36.95;101429.81;5055604;28;20112;-76
2022/03/16 00:14:39;;;;;;;9.77;3.22;;;;;;;20.50;37.02;101428.94;5055395;28;20466;-76
2022/03/16 00:17:05;;;;;;;7.00;3.33;;;;;;;20.30;37.44;101427.28;5055369;28;20048;-75
2022/03/16 00:19:31;;;;;;;7.22;3.25;;;;;;;20.35;37.50;101435.31;5055372;28;20033;-77
2022/03/16 00:21:58;;;;;;;6.90;2.88;;;;;;;20.07;38.15;101438.25;5055341;28;20064;-75
2022/03/16 00:24:24;;;;;;;8.98;4.45;;;;;;;19.97;38.32;101435.22;5055376;28;20382;-75
2022/03/16 00:26:50;;;;;;;6.28;3.13;;;;;;;19.98;38.43;101439.59;5055306;28;20400;-75
2022/03/16 00:29:16;;;;;;;6.78;2.95;;;;;;;19.92;38.29;101434.31;5055199;28;20036;-75
2022/03/16 00:31:41;;;;;;;8.02;3.88;;;;;;;19.80;38.76;101436.38;5055201;28;20067;-75
2022/03/16 00:34:07;;;;;;;3.75;2.83;;;;;;;19.83;38.50;101435.69;5055168;28;20025;-75
2022/03/16 00:36:32;;;;;;;6.88;3.15;;;;;;;19.65;38.68;101440.81;5055149;28;20079;-75
2022/03/16 00:38:58;;;;;;;5.13;2.97;;;;;;;19.49;39.06;101431.63;5055087;28;20025;-75
2022/03/16 00:41:24;;;;;;;5.18;2.90;;;;;;;19.87;38.07;101437.34;5055048;28;20079;-76
2022/03/16 00:43:49;;;;;;;4.63;3.10;;;;;;;19.75;38.31;101439.44;5054931;28;20070;-75
2022/03/16 00:46:15;;;;;;;6.63;2.65;;;;;;;19.69;38.40;101438.91;5036739;28;20112;-76
2022/03/16 00:48:41;;;;;;;3.33;2.30;;;;;;;19.43;38.93;101449.69;5054646;28;20480;-75
2022/03/16 00:51:08;;;;;;;4.30;2.45;;;;;;;19.20;39.11;101447.50;5054709;28;20482;-75
2022/03/16 00:53:34;;;;;;;5.38;2.63;;;;;;;19.11;39.39;101455.94;5036951;28;20029;-76
2022/03/16 00:56:03;;;;;;;4.75;2.30;;;;;;;19.05;39.12;101454.63;5054719;28;20028;-76
2022/03/16 00:58:29;;;;;;;7.13;2.20;;;;;;;19.02;39.34;101444.22;5054581;28;20045;-76
2022/03/16 01:00:55;;;;;;;3.13;1.85;;;;;;;19.23;38.83;101448.75;5054554;28;20032;-76
2022/03/16 01:03:21;;;;;;;3.25;1.40;;;;;;;19.31;38.24;101456.09;5054551;28;20037;-75
2022/03/16 01:05:46;;;;;;;2.45;1.38;;;;;;;19.25;38.32;101458.31;5054607;28;20029;-75
2022/03/16 01:08:13;;;;;;;2.05;1.40;;;;;;;19.18;37.93;101465.63;5054573;28;20475;-75
2022/03/16 01:10:39;;;;;;;3.20;1.20;;;;;;;19.01;38.40;101473.09;5036636;28;20540;-75
2022/03/16 01:13:06;;;;;;;2.40;1.33;;;;;;;18.85;38.63;101467.50;5036498;28;20029;-76
2022/03/16 01:15:31;;;;;;;1.70;1.30;;;;;;;19.11;38.08;101475.34;5054395;28;20111;-76
2022/03/16 01:17:57;;;;;;;3.53;1.45;;;;;;;19.06;38.06;101472.03;5054407;28;20025;-75
2022/03/16 01:20:23;;;;;;;2.30;1.48;;;;;;;19.00;38.17;101471.47;5054233;28;20056;-75
2022/03/16 01:22:49;;;;;;;1.95;1.20;;;;;;;19.00;38.17;101470.69;5054262;28;20736;-75
2022/03/16 01:25:14;;;;;;;1.73;1.25;;;;;;;18.97;38.20;101463.09;5054179;28;20025;-75
2022/03/16 01:27:40;;;;;;;2.67;1.52;;;;;;;18.94;38.25;101469.31;5054122;28;20029;-76
2022/03/16 01:30:07;;;;;;;2.33;1.25;;;;;;;18.96;38.32;101472.53;5054144;28;20067;-75
2022/03/16 01:32:32;;;;;;;2.33;1.25;;;;;;;19.00;37.94;101476.22;5054092;28;20025;-75
2022/03/16 01:34:58;;;;;;;3.60;1.73;;;;;;;18.99;38.02;101480.16;5054026;28;20035;-75
2022/03/16 01:37:23;;;;;;;3.55;1.55;;;;;;;18.94;38.06;101474.84;5053928;28;20087;-75
2022/03/16 01:39:49;;;;;;;2.03;1.38;;;;;;;18.96;38.02;101480.84;5053617;28;20073;-76
2022/03/16 01:42:15;;;;;;;2.70;1.42;;;;;;;18.98;38.01;101484.09;5036185;28;20033;-75
2022/03/16 01:44:49;;;;;;;2.28;1.20;;;;;;;18.85;38.18;101486.88;5053861;28;20029;-75
2022/03/16 01:47:18;;;;;;;5.13;1.40;;;;;;;18.91;38.02;101492.19;5053782;28;20436;-75
2022/03/16 01:49:45;;;;;;;2.63;1.52;;;;;;;18.99;38.02;101482.91;5053770;28;20398;-75
2022/03/16 01:52:14;;;;;;;4.28;1.63;;;;;;;19.03;37.92;101475.50;5053668;28;20429;-82
2022/03/16 01:54:40;;;;;;;3.33;1.80;;;;;;;18.80;38.30;101480.78;5053701;28;20029;-76
2022/03/16 01:57:09;;;;;;;2.13;1.60;;;;;;;18.95;38.10;101484.75;5053295;28;20621;-75
2022/03/16 01:59:35;;;;;;;4.40;1.67;;;;;;;18.82;38.36;101487.59;5053495;28;20032;-75
2022/03/16 02:02:03;;;;;;;2.38;1.63;;;;;;;18.82;38.22;101493.13;5035549;28;20266;-75
2022/03/16 02:04:29;;;;;;;2.30;1.50;;;;;;;18.66;38.65;101500.53;5053453;28;20487;-76
2022/03/16 02:06:54;;;;;;;2.50;1.65;;;;;;;18.67;38.51;101496.63;5053407;28;20120;-75
2022/03/16 02:09:21;;;;;;;4.28;1.60;;;;;;;18.67;38.39;101491.09;5053402;28;20483;-75
2022/03/16 02:11:47;;;;;;;3.47;2.00;;;;;;;18.72;38.31;101498.34;5053311;28;20028;-75
2022/03/16 02:14:13;;;;;;;4.90;2.28;;;;;;;18.66;38.46;101503.28;5053259;28;20033;-75
2022/03/16 02:16:39;;;;;;;3.97;1.95;;;;;;;18.60;38.64;101499.16;5053199;28;20017;-75
2022/03/16 02:19:04;;;;;;;3.95;1.85;;;;;;;18.66;38.47;101505.25;5053122;28;20037;-74
2022/03/16 02:21:37;;;;;;;4.63;2.35;;;;;;;18.60;38.56;101506.66;5053142;28;20396;-75
2022/03/16 02:24:03;;;;;;;3.00;2.13;;;;;;;18.62;38.47;101504.34;5053056;28;20021;-74
2022/03/16 02:26:29;;;;;;;2.85;2.05;;;;;;;18.66;38.53;101511.59;5052615;28;20613;-75
2022/03/16 02:28:54;;;;;;;3.05;2.00;;;;;;;18.58;38.54;101516.09;5052955;28;20029;-75
2022/03/16 02:31:20;;;;;;;3.40;2.15;;;;;;;18.64;38.33;101519.44;5052958;28;20083;-75
2022/03/16 02:33:46;;;;;;;3.03;2.45;;;;;;;18.65;38.16;101523.81;5052964;28;20031;-74
2022/03/16 02:36:12;;;;;;;5.00;2.45;;;;;;;18.60;38.52;101518.53;5052907;28;20394;-75
2022/03/16 02:38:38;;;;;;;4.03;2.53;;;;;;;18.63;38.42;101517.00;5034909;28;20039;-75
2022/03/16 02:41:04;;;;;;;4.25;2.53;;;;;;;18.63;38.15;101512.28;5052711;28;20041;-75
2022/03/16 02:43:29;;;;;;;5.88;2.63;;;;;;;18.61;38.50;101517.38;5052751;28;20035;-75
2022/03/16 02:45:56;;;;;;;3.05;2.20;;;;;;;18.65;38.35;101523.81;5052727;28;20086;-78
2022/03/16 02:48:21;;;;;;;2.40;1.90;;;;;;;18.66;38.06;101519.91;5052756;28;20064;-75
2022/03/16 02:50:48;;;;;;;4.90;2.47;;;;;;;18.63;38.48;101514.25;5034771;28;20067;-75
2022/03/16 02:53:15;;;;;;;3.42;2.28;;;;;;;18.66;38.25;101510.78;5052621;28;20471;-76
2022/03/16 02:55:41;;;;;;;3.67;2.53;;;;;;;18.67;38.24;101507.72;5052509;28;20024;-75
2022/03/16 02:58:07;;;;;;;3.70;2.30;;;;;;;18.66;38.17;101516.34;5052355;28;20049;-74
2022/03/16 03:00:34;;;;;;;4.25;2.72;;;;;;;18.62;38.34;101521.75;5052483;28;20083;-75
2022/03/16 03:02:59;;;;;;;5.60;2.50;;;;;;;18.51;38.58;101520.59;5052508;28;20029;-75
2022/03/16 03:05:25;;;;;;;4.70;2.40;;;;;;;18.50;38.40;101524.53;5052451;28;20039;-75
2022/03/16 03:07:51;;;;;;;5.28;2.45;;;;;;;18.57;38.14;101525.53;5034500;28;20021;-75
2022/03/16 03:10:16;;;;;;;3.95;3.22;;;;;;;18.69;37.98;101526.72;5052098;28;20059;-75
2022/03/16 03:12:42;;;;;;;6.72;2.58;;;;;;;19.03;37.26;101526.16;5052183;28;20032;-75
2022/03/16 03:15:11;;;;;;;5.05;2.22;;;;;;;19.04;37.25;101532.50;5052355;28;20383;-75
2022/03/16 03:17:37;;;;;;;4.30;1.98;;;;;;;18.80;37.78;101533.38;5034446;28;20086;-75
2022/03/16 03:20:04;;;;;;;3.80;2.20;;;;;;;18.69;37.96;101537.78;5052198;28;20029;-75
2022/03/16 03:22:31;;;;;;;4.88;2.15;;;;;;;18.56;38.18;101540.53;5052152;28;20036;-75
2022/03/16 03:24:57;;;;;;;2.97;2.30;;;;;;;18.46;38.28;101540.22;5052196;28;20387;-74
2022/03/16 03:27:23;;;;;;;3.70;2.22;;;;;;;18.47;38.17;101542.63;5052201;28;20029;-76
2022/03/16 03:29:49;;;;;;;6.15;3.30;;;;;;;18.34;38.47;101549.31;5052205;28;20027;-77
2022/03/16 03:32:15;;;;;;;6.78;2.97;;;;;;;18.28;38.55;101548.72;5052189;28;20021;-75
2022/03/16 03:34:46;;;;;;;4.00;2.42;;;;;;;18.28;38.39;101545.97;5052147;28;20213;-75
2022/03/16 03:37:13;;;;;;;3.75;2.30;;;;;;;18.17;38.67;101550.34;5053311;28;20040;-75
2022/03/16 03:39:39;;;;;;;4.35;2.40;;;;;;;18.06;38.91;101546.44;5056129;28;20041;-75
2022/03/16 03:42:05;;;;;;;4.13;2.30;;;;;;;18.16;38.71;101559.81;5056128;28;20028;-74
2022/03/16 03:44:31;;;;;;;4.82;2.40;;;;;;;18.10;38.80;101557.59;5056067;28;20090;-75
2022/03/16 03:46:56;;;;;;;2.70;1.98;;;;;;;18.14;38.71;101564.88;5056099;28;20052;-75
2022/03/16 03:49:22;;;;;;;5.68;2.80;;;;;;;18.18;38.51;101563.03;5056003;28;20033;-75
2022/03/16 03:51:48;;;;;;;4.47;2.03;;;;;;;18.18;38.64;101551.97;5055987;28;20527;-76
2022/03/16 03:54:13;;;;;;;3.80;2.13;;;;;;;18.13;38.65;101549.41;5038079;28;20067;-75
2022/03/16 03:56:39;;;;;;;3.05;2.03;;;;;;;18.10;38.79;101555.66;5055897;28;20021;-74
2022/03/16 03:59:05;;;;;;;4.93;2.80;;;;;;;18.10;38.76;101560.38;5054415;28;20407;-75
2022/03/16 04:01:31;;;;;;;5.65;2.10;;;;;;;18.02;38.95;101573.16;5054441;28;20033;-75
2022/03/16 04:03:57;;;;;;;3.72;1.88;;;;;;;17.92;39.04;101562.53;5054439;28;20032;-75
2022/03/16 04:06:22;;;;;;;4.38;2.40;;;;;;;17.78;39.22;101551.81;5054374;28;20028;-74
2022/03/16 04:08:48;;;;;;;4.38;2.08;;;;;;;17.84;39.36;101553.19;5036166;28;20033;-75
2022/03/16 04:11:14;;;;;;;4.93;2.22;;;;;;;17.93;38.79;101550.34;5054186;28;20038;-75
2022/03/16 04:13:39;;;;;;;6.10;2.25;;;;;;;17.91;38.79;101553.44;5054332;28;20480;-75
2022/03/16 04:16:05;;;;;;;4.70;2.00;;;;;;;17.81;39.24;101562.16;5054181;28;20495;-75
2022/03/16 04:18:30;;;;;;;4.82;2.35;;;;;;;17.64;39.40;101554.03;5054250;28;20108;-75
2022/03/16 04:20:56;;;;;;;6.18;1.90;;;;;;;17.74;39.17;101559.16;5054102;28;20033;-75
2022/03/16 04:23:22;;;;;;;5.88;2.53;;;;;;;17.75;39.26;101567.09;5054134;28;20032;-75
2022/03/16 04:25:48;;;;;;;3.20;2.08;;;;;;;17.81;39.10;101569.66;5278613;22;1910212;-75
2022/03/16 04:28:13;;;;;;;4.38;2.13;;;;;;;17.63;39.36;101572.56;5037072;28;20087;-75
2022/03/16 04:30:39;;;;;;;5.22;2.22;;;;;;;17.74;39.07;101578.50;5055272;28;20107;-74
2022/03/16 04:33:05;;;;;;;5.90;2.30;;;;;;;17.73;39.03;101574.94;5055254;28;20614;-82
2022/03/16 04:35:30;;;;;;;5.20;2.40;;;;;;;17.73;39.26;101577.69;5055255;28;20029;-75
2022/03/16 04:37:56;;;;;;;4.22;2.10;;;;;;;17.70;39.34;101575.63;5055152;28;20029;-75
2022/03/16 04:40:21;;;;;;;5.28;2.45;;;;;;;17.72;39.02;101578.03;5034147;28;20033;-75
2022/03/16 04:42:47;;;;;;;4.70;2.17;;;;;;;17.81;39.06;101580.72;5055007;28;20094;-75
2022/03/16 04:45:13;;;;;;;5.75;2.40;;;;;;;17.81;39.13;101581.50;5036426;28;20398;-75
2022/03/16 04:47:39;;;;;;;4.95;2.65;;;;;;;17.74;39.30;101582.06;5036729;28;20104;-75
2022/03/16 04:50:05;;;;;;;10.63;2.58;;;;;;;17.78;39.08;101579.44;5054995;28;20037;-75
2022/03/16 04:52:32;;;;;;;6.18;2.40;;;;;;;17.78;39.05;101581.41;5035772;28;20025;-74
2022/03/16 04:54:58;;;;;;;11.95;2.90;;;;;;;17.78;39.11;101589.69;5054871;28;20031;-75
2022/03/16 04:57:24;;;;;;;4.93;2.35;;;;;;;17.72;39.20;101589.91;5054842;28;20408;-75
2022/03/16 04:59:49;;;;;;;5.80;2.67;;;;;;;17.59;39.56;101596.50;5054712;28;20035;-75
2022/03/16 05:02:15;;;;;;;6.13;2.72;;;;;;;17.58;39.24;101594.88;5054457;28;20536;-75
2022/03/16 05:04:40;;;;;;;5.13;2.95;;;;;;;17.66;39.19;101598.72;5054683;28;20066;-74
2022/03/16 05:07:06;;;;;;;5.93;3.05;;;;;;;17.64;39.16;101596.28;5054454;28;20036;-75
2022/03/16 05:09:32;;;;;;;6.22;3.55;;;;;;;17.56;39.32;101599.94;5036374;28;20037;-75
2022/03/16 05:11:57;;;;;;;5.80;3.28;;;;;;;17.62;39.30;101604.13;5036641;28;20025;-77
2022/03/16 05:14:23;;;;;;;7.05;2.97;;;;;;;17.60;39.34;101609.16;5036293;28;20039;-75
2022/03/16 05:16:48;;;;;;;8.13;3.58;;;;;;;17.60;39.07;101605.59;5054368;28;20028;-75
2022/03/16 05:19:14;;;;;;;4.65;2.85;;;;;;;17.64;39.25;101601.81;5054306;28;20025;-75
2022/03/16 05:21:40;;;;;;;13.48;4.43;;;;;;;17.58;39.24;101600.41;5054357;28;20025;-75
2022/03/16 05:24:06;;;;;;;5.78;3.42;;;;;;;17.63;39.26;101614.03;5054235;28;20033;-76
2022/03/16 05:26:32;;;;;;;7.63;3.20;;;;;;;17.55;39.25;101627.94;5054160;28;20384;-75
2022/03/16 05:28:57;;;;;;;6.93;3.25;;;;;;;17.50;39.46;101625.38;5054260;28;20037;-75
2022/03/16 05:31:23;;;;;;;8.43;4.03;;;;;;;17.51;39.35;101626.97;5054147;28;20528;-74
2022/03/16 05:33:49;;;;;;;6.85;3.17;;;;;;;17.52;39.53;101637.69;5054115;28;20028;-75
2022/03/16 05:36:16;;;;;;;8.73;3.13;;;;;;;17.49;39.37;101632.84;5054111;28;20029;-76
2022/03/16 05:38:42;;;;;;;8.35;4.03;;;;;;;17.46;39.39;101630.78;5054046;28;20049;-75
2022/03/16 05:41:07;;;;;;;6.20;3.42;;;;;;;17.48;39.17;101634.81;5053916;28;20076;-75
2022/03/16 05:43:33;;;;;;;16.85;5.70;;;;;;;17.42;39.40;101635.34;5053962;28;20032;-75
2022/03/16 05:45:58;;;;;;;8.02;3.83;;;;;;;17.32;39.47;101636.56;5053899;28;20552;-75
2022/03/16 05:48:24;;;;;;;14.05;4.55;;;;;;;17.22;39.69;101638.91;5053847;28;20028;-75
2022/03/16 05:50:50;;;;;;;6.80;3.88;;;;;;;17.28;39.45;101629.28;5035782;28;20033;-74
2022/03/16 05:53:15;;;;;;;6.15;3.40;;;;;;;17.30;39.16;101635.25;5053722;28;20032;-76
2022/03/16 05:55:42;;;;;;;9.73;4.07;;;;;;;17.26;39.44;101632.38;5035816;28;20364;-75
2022/03/16 05:58:08;;;;;;;9.27;3.67;;;;;;;17.23;39.50;101638.59;5035698;28;20078;-75
2022/03/16 06:00:35;;;;;;;13.48;4.25;;;;;;;17.15;39.75;101643.03;5052710;28;20029;-75
2022/03/16 06:03:01;;;;;;;9.50;4.13;;;;;;;17.18;39.61;101636.00;5053545;28;20723;-77
2022/03/16 06:05:26;;;;;;;8.55;4.28;;;;;;;17.15;39.63;101651.31;5053443;28;20100;-75
2022/03/16 06:07:53;;;;;;;12.75;4.55;;;;;;;17.13;39.58;101650.81;5053435;28;20471;-76
2022/03/16 06:10:19;;;;;;;12.13;4.25;;;;;;;17.15;39.50;101648.56;5051541;28;20433;-75
2022/03/16 06:13:02;;;;;;;9.32;4.65;;;;;;;16.99;39.57;101660.50;5033582;28;20029;-75
2022/03/16 06:15:30;;;;;;;10.27;4.72;;;;;;;17.00;39.45;101662.09;5051932;28;20028;-74
2022/03/16 06:17:58;;;;;;;9.65;4.20;;;;;;;17.01;39.42;101656.28;5052617;28;20467;-74
2022/03/16 06:20:25;;;;;;;6.93;3.70;;;;;;;16.99;39.26;101658.53;5051405;28;20038;-75
2022/03/16 06:22:50;;;;;;;8.63;4.20;;;;;;;17.08;39.18;101669.56;5033431;28;20055;-75
2022/03/16 06:25:17;;;;;;;8.88;4.13;;;;;;;17.19;38.93;101673.53;5051122;28;20064;-74
2022/03/16 06:27:42;;;;;;;8.73;4.53;;;;;;;17.06;39.13;101683.66;5033346;28;20460;-75
2022/03/16 06:30:09;;;;;;;9.05;4.45;;;;;;;16.90;39.41;101682.63;5051152;28;20033;-75
2022/03/16 06:32:34;;;;;;;10.88;4.50;;;;;;;16.71;39.87;101691.34;5051248;28;20120;-75
2022/03/16 06:35:01;;;;;;;11.15;4.35;;;;;;;16.78;39.33;101696.34;5052194;28;20100;-73
2022/03/16 06:37:27;;;;;;;11.02;4.40;;;;;;;16.81;39.67;101681.88;5035113;28;20188;-74
2022/03/16 06:39:52;;;;;;;12.55;3.92;;;;;;;16.69;39.82;101685.31;5052899;28;20668;-74
2022/03/16 06:42:18;;;;;;;10.23;4.18;;;;;;;16.70;39.65;101689.72;5052957;28;20368;-75
2022/03/16 06:44:44;;;;;;;10.15;4.15;;;;;;;16.61;39.66;101689.69;5052575;28;20032;-76
2022/03/16 06:47:09;;;;;;;6.63;4.00;;;;;;;16.68;39.51;101689.19;5052684;28;20029;-75
2022/03/16 06:49:35;;;;;;;9.48;4.45;;;;;;;16.68;39.67;101691.94;5052763;28;20111;-75
2022/03/16 06:52:00;;;;;;;10.82;4.57;;;;;;;16.65;40.18;101706.44;5034822;28;20394;-75
2022/03/16 06:54:26;;;;;;;9.13;3.88;;;;;;;16.73;39.50;101707.56;5052671;28;20523;-75
2022/03/16 06:56:52;;;;;;;16.85;4.78;;;;;;;16.68;39.56;101710.47;5052632;28;20395;-75
2022/03/16 06:59:17;;;;;;;7.32;3.95;;;;;;;16.69;39.61;101721.19;5052493;28;20104;-75
2022/03/16 07:01:43;;;;;;;7.45;3.83;;;;;;;16.78;39.44;101718.44;5052502;28;20036;-75
2022/03/16 07:04:08;;;;;;;10.95;4.65;;;;;;;16.72;39.49;101733.53;5052560;28;20029;-75
2022/03/16 07:06:34;;;;;;;8.95;4.28;;;;;;;16.76;39.28;101756.56;5034661;28;20131;-75
2022/03/16 07:09:00;;;;;;;9.50;5.28;;;;;;;16.71;39.68;101731.94;5052504;28;20033;-74
2022/03/16 07:11:25;;;;;;;9.00;4.60;;;;;;;16.74;39.38;101732.06;5052249;28;20083;-75
2022/03/16 07:16:35;;;;;;;8.80;4.20;;;;;;;16.81;39.24;101745.34;5052434;28;20031;-75
2022/03/16 07:19:01;;;;;;;13.02;4.78;;;;;;;16.74;39.38;101745.88;5052269;28;20446;-74
2022/03/16 07:21:27;;;;;;;13.50;5.13;;;;;;;16.70;39.75;101749.59;5034375;28;20048;-74
2022/03/16 07:23:53;;;;;;;6.65;4.05;;;;;;;16.65;39.38;101748.63;5052323;28;20065;-74
2022/03/16 07:26:18;;;;;;;8.60;3.70;;;;;;;16.76;39.17;101759.31;5033926;28;20473;-75
2022/03/16 07:28:44;;;;;;;10.73;3.83;;;;;;;16.78;39.43;101777.19;5034387;28;20544;-73
2022/03/16 07:31:09;;;;;;;9.25;3.80;;;;;;;16.72;39.52;101764.72;5034296;28;20029;-75
2022/03/16 07:33:35;;;;;;;10.40;4.30;;;;;;;16.64;39.62;101760.81;5052225;28;20025;-75
2022/03/16 07:36:02;;;;;;;6.15;3.42;;;;;;;16.71;39.67;101757.56;5052121;28;20025;-75
2022/03/16 07:38:28;;;;;;;5.53;3.53;;;;;;;16.76;39.24;101762.91;5052149;28;20051;-73
2022/03/16 07:40:54;;;;;;;8.82;4.30;;;;;;;16.84;39.32;101752.97;5034215;28;20036;-74
2022/03/16 07:43:20;;;;;;;8.90;3.70;;;;;;;16.83;39.16;101745.81;5033877;28;20391;-74
2022/03/16 07:45:46;;;;;;;8.88;2.92;;;;;;;16.77;39.32;101749.91;5034220;28;20025;-75
2022/03/16 07:48:12;;;;;;;6.22;3.20;;;;;;;16.86;39.11;101753.47;5051824;28;20025;-75
2022/03/16 07:50:38;;;;;;;7.53;3.28;;;;;;;16.91;39.20;101754.06;5034118;28;20509;-74
2022/03/16 07:53:04;;;;;;;8.52;2.85;;;;;;;17.05;38.84;101773.16;5052024;28;20021;-74
2022/03/16 07:55:30;;;;;;;11.57;2.30;;;;;;;17.00;38.82;101787.16;5033918;28;20048;-73
2022/03/16 07:57:55;;;;;;;5.68;2.58;;;;;;;17.03;39.02;101793.97;5051829;28;20471;-74
2022/03/16 08:00:22;;;;;;;4.78;2.28;;;;;;;16.99;38.91;101793.00;5051732;28;20024;-73
2022/03/16 08:02:48;;;;;;;6.22;2.53;;;;;;;16.96;39.02;101788.16;5034053;28;20068;-75
2022/03/16 08:05:16;;;;;;;4.50;2.55;;;;;;;17.01;38.68;101780.53;5051830;28;20036;-76
2022/03/16 08:07:42;;;;;;;5.25;2.75;;;;;;;17.11;38.60;101796.69;5034029;28;20398;-74
2022/03/16 08:10:08;;;;;;;11.63;2.85;;;;;;;17.02;39.01;101800.66;5051921;28;20036;-73
2022/03/16 08:12:34;;;;;;;9.90;5.70;;;;;;;17.04;38.95;101807.44;5051847;28;20568;-76
2022/03/16 08:15:00;;;;;;;7.88;3.97;;;;;;;17.08;38.59;101802.91;5051658;28;20466;-76
2022/03/16 08:17:26;;;;;;;7.35;3.13;;;;;;;17.11;38.85;101793.94;5051905;28;20450;-78
2022/03/16 08:19:52;;;;;;;5.07;2.83;;;;;;;17.10;38.57;101795.09;5033927;28;20017;-76
2022/03/16 08:22:34;;;;;;;7.00;3.33;;;;;;;17.03;38.79;101814.13;5051812;28;20096;-76
2022/03/16 08:25:03;;;;;;;11.77;4.65;;;;;;;16.84;38.96;101819.19;5055002;28;20020;-77
2022/03/16 08:27:29;;;;;;;8.68;3.20;;;;;;;16.84;39.27;101802.66;5053652;28;20033;-75
2022/03/16 08:29:55;;;;;;;10.43;3.40;;;;;;;16.87;39.00;101796.47;5053990;28;20104;-75
2022/03/16 08:32:22;;;;;;;6.82;3.33;;;;;;;16.93;39.06;101800.69;5055331;28;20025;-74
2022/03/16 08:34:48;;;;;;;7.13;2.72;;;;;;;16.98;38.94;101811.53;5055237;28;20021;-75
2022/03/16 08:37:14;;;;;;;7.85;3.85;;;;;;;17.10;38.79;101816.38;5055232;28;20115;-74
2022/03/16 08:39:40;;;;;;;5.07;2.67;;;;;;;17.13;38.98;101827.56;5037195;28;20112;-75
2022/03/16 08:42:08;;;;;;;6.43;3.25;;;;;;;17.17;38.86;101827.72;5055238;28;20104;-75
2022/03/16 08:44:34;;;;;;;15.63;3.38;;;;;;;17.19;38.88;101826.22;5035527;28;20021;-75
2022/03/16 08:47:00;;;;;;;6.38;2.78;;;;;;;17.28;38.40;101828.94;5053413;28;20025;-75
2022/03/16 08:49:26;;;;;;;9.77;3.75;;;;;;;17.28;38.81;101840.00;5054976;28;20021;-75
2022/03/16 08:51:51;;;;;;;7.00;3.10;;;;;;;17.46;38.20;101840.75;5054128;28;20031;-75
2022/03/16 08:54:17;;;;;;;6.15;2.50;;;;;;;17.47;38.36;101839.59;5053525;28;20028;-76
2022/03/16 08:56:43;;;;;;;5.28;2.92;;;;;;;17.52;38.41;101852.41;5054677;28;20028;-75
2022/03/16 08:59:09;;;;;;;6.68;2.47;;;;;;;17.46;38.36;101855.38;5054722;28;20021;-76
2022/03/16 09:01:36;;;;;;;8.20;2.95;;;;;;;17.64;38.13;101858.03;5054687;28;20018;-77
2022/03/16 09:04:02;;;;;;;8.05;3.20;;;;;;;17.75;37.89;101851.00;5051158;28;20064;-75
2022/03/16 09:06:31;;;;;;;6.82;4.03;;;;;;;17.68;37.91;101865.34;5053129;28;20060;-75
2022/03/16 09:08:57;;;;;;;7.88;3.67;;;;;;;17.70;37.72;101871.38;5044874;28;20039;-75
2022/03/16 09:11:23;;;;;;;8.73;2.65;;;;;;;17.57;38.10;101872.38;5053263;28;20033;-74
2022/03/16 09:13:48;;;;;;;11.95;3.50;;;;;;;17.61;37.87;101867.81;5052458;28;20037;-75
2022/03/16 09:16:14;;;;;;;9.75;3.00;;;;;;;17.63;37.66;101868.28;5034498;28;20095;-74
2022/03/16 09:18:40;;;;;;;8.38;3.00;;;;;;;17.71;37.90;101878.50;5053264;28;20028;-75
2022/03/16 09:21:07;;;;;;;10.50;3.75;;;;;;;17.76;37.81;101880.28;5035062;28;20028;-74
2022/03/16 09:23:32;;;;;;;11.00;3.38;;;;;;;18.01;37.20;101889.56;5052859;28;20032;-74
2022/03/16 09:25:59;;;;;;;7.70;3.20;;;;;;;18.09;37.25;101899.75;5030830;28;20045;-75
2022/03/16 09:28:25;;;;;;;12.88;3.25;;;;;;;18.13;37.23;101900.69;5033277;28;20379;-75
2022/03/16 09:30:51;;;;;;;7.63;2.72;;;;;;;18.01;36.97;101895.09;5033238;28;20052;-75
2022/03/16 09:33:22;;;;;;;10.60;3.22;;;;;;;18.16;36.76;101897.25;5033184;28;20831;-77
2022/03/16 09:35:48;;;;;;;6.13;2.13;;;;;;;18.34;36.51;101891.59;5028614;28;20080;-79
2022/03/16 09:38:18;;;;;;;10.48;2.70;;;;;;;18.39;36.54;101888.63;5033117;28;20076;-74
2022/03/16 09:40:45;;;;;;;6.80;2.95;;;;;;;18.13;36.83;101897.09;5026253;28;20489;-76
2022/03/16 09:43:18;;;;;;;8.80;3.22;;;;;;;18.33;36.47;101906.56;5031226;28;20099;-75
2022/03/16 09:45:53;;;;;;;6.85;2.35;;;;;;;18.39;36.31;101903.25;5028969;28;20499;-75
2022/03/16 09:48:21;;;;;;;8.77;2.53;;;;;;;18.24;36.65;101898.34;5032465;28;20623;-75
2022/03/16 09:50:47;;;;;;;10.50;2.90;;;;;;;18.49;36.34;101904.81;5032983;28;20033;-76
2022/03/16 09:53:16;;;;;;;9.75;2.88;;;;;;;18.56;36.43;101894.00;5032954;28;20029;-75
2022/03/16 09:55:42;;;;;;;12.77;3.25;;;;;;;18.67;36.17;101906.31;5032470;28;20033;-78
2022/03/16 09:58:07;;;;;;;8.00;2.90;;;;;;;18.83;35.97;101896.22;5032778;28;20033;-74
2022/03/16 10:00:33;;;;;;;24.85;4.35;;;;;;;19.00;35.80;101902.72;5031176;28;20071;-74
2022/03/16 10:03:05;;;;;;;13.93;3.22;;;;;;;19.04;35.60;101904.50;5032552;28;20025;-75
2022/03/16 10:05:31;;;;;;;24.65;4.40;;;;;;;19.10;35.35;101905.06;5032753;28;20021;-75
2022/03/16 10:08:05;;;;;;;29.30;6.13;;;;;;;19.28;35.18;101902.91;5032447;28;20057;-75
2022/03/16 10:13:18;;;;;;;26.33;4.22;;;;;;;19.22;34.68;101915.38;5031437;28;20068;-75
2022/03/16 10:15:44;;;;;;;10.48;2.78;;;;;;;19.27;34.75;101918.75;5027513;28;20429;-78
2022/03/16 10:18:14;;;;;;;32.90;7.32;;;;;;;19.30;34.42;101908.91;5032398;28;20089;-78
2022/03/16 10:20:40;;;;;;;17.23;3.53;;;;;;;19.38;33.81;101921.84;5032114;28;20022;-79
2022/03/16 10:23:16;;;;;;;43.03;5.97;;;;;;;19.44;33.22;101928.00;5032313;28;20064;-76
2022/03/16 10:25:53;;;;;;;15.95;3.10;;;;;;;19.40;33.40;101927.84;5037246;28;20108;-76
2022/03/16 10:28:23;;;;;;;40.78;5.40;;;;;;;19.45;33.30;101927.66;5051766;28;20021;-76
2022/03/16 10:30:57;;;;;;;31.27;6.80;;;;;;;19.47;33.28;101936.41;5051999;28;20031;-76
2022/03/16 10:33:26;;;;;;;20.95;3.50;;;;;;;19.52;33.21;101947.28;5049270;28;20063;-75
2022/03/16 10:36:05;;;;;;;7.40;1.70;;;;;;;19.57;32.32;101940.72;5052002;28;20075;-76
2022/03/16 10:38:41;;;;;;;58.65;9.20;;;;;;;19.61;32.45;101938.91;5050165;28;20012;-76
2022/03/16 10:41:13;;;;;;;24.17;5.28;;;;;;;19.54;32.26;101949.72;5031754;28;20059;-80
2022/03/16 10:46:35;;;;;;;5.82;2.00;;;;;;;19.44;32.11;101948.19;5049024;28;20497;-79
2022/03/16 10:49:12;;;;;;;16.63;4.28;;;;;;;19.27;31.92;101943.69;5035661;28;20024;-79
2022/03/16 10:51:37;;;;;;;18.98;4.00;;;;;;;19.52;31.90;101941.75;5051705;28;20429;-76
2022/03/16 10:54:05;;;;;;;71.70;11.50;;;;;;;19.70;31.83;101945.13;5050668;28;20032;-80
2022/03/16 10:56:32;;;;;;;9.25;2.08;;;;;;;19.76;31.70;101940.97;5033717;28;20079;-79
2022/03/16 10:58:59;;;;;;;24.98;4.15;;;;;;;19.51;31.50;101944.88;5051537;28;20025;-76
2022/03/16 11:01:27;;;;;;;24.80;4.55;;;;;;;19.51;31.50;101951.22;5048949;28;20111;-79
2022/03/16 11:03:55;;;;;;;19.05;3.20;;;;;;;19.54;31.65;101947.75;5051422;28;20025;-76
2022/03/16 11:06:21;;;;;;;77.82;10.60;;;;;;;19.73;31.19;101941.69;5051298;28;20067;-76
2022/03/16 11:08:51;;;;;;;17.95;3.67;;;;;;;19.80;31.05;101943.84;5051259;28;20098;-75
2022/03/16 11:14:03;;;;;;;5.03;1.73;;;;;;;20.22;30.37;101941.63;5051241;28;20382;-77
2022/03/16 11:16:32;;;;;;;37.45;5.82;;;;;;;20.33;30.44;101948.34;5051285;28;20487;-79
2022/03/16 11:19:00;;;;;;;12.27;2.28;;;;;;;20.44;30.27;101945.91;5032430;28;20120;-80
2022/03/16 11:21:52;;;;;;;23.73;5.15;;;;;;;20.34;29.53;101952.72;5033244;28;20393;-77
2022/03/16 11:24:24;;;;;;;21.23;4.30;;;;;;;19.94;29.23;101945.13;5041649;28;20036;-81
2022/03/16 11:27:09;;;;;;;12.63;2.38;;;;;;;20.19;29.05;101947.91;5031166;28;20467;-80
2022/03/16 11:30:35;;;;;;;17.60;2.70;;;;;;;19.82;28.55;101949.88;5032268;28;20098;-79
2022/03/16 11:33:04;;;;;;;12.65;2.83;;;;;;;19.94;28.21;101947.09;4988965;28;20032;-80
2022/03/16 11:35:35;;;;;;;4.53;1.73;;;;;;;19.61;28.05;101950.78;4973265;28;20034;-75